createdAt,value
2022-11-13T00:02:53.662Z,99608.06
2022-11-13T00:08:14.146Z,99598.16
2022-11-13T00:13:35.139Z,99580.41
2022-11-13T00:18:55.598Z,99581.47
2022-11-13T00:24:15.901Z,99581.06
2022-11-13T00:29:36.197Z,99577.88
2022-11-13T00:34:56.563Z,99573.84
2022-11-13T00:40:17.281Z,99567.25
2022-11-13T00:45:37.526Z,99566.63
2022-11-13T00:50:58.284Z,99571.78
2022-11-13T00:56:18.536Z,99563.34
2022-11-13T01:01:39.345Z,99562.72
2022-11-13T01:06:59.646Z,99567.47
2022-11-13T01:12:20.037Z,99566.88
2022-11-13T01:17:40.465Z,99562.94
2022-11-13T01:23:01.060Z,99569.03
2022-11-13T01:28:21.429Z,99554.50
2022-11-13T01:33:41.852Z,99557.38
2022-11-13T01:39:02.486Z,99540.47
2022-11-13T01:44:23.293Z,99540.56
2022-11-13T01:49:45.653Z,99526.34
2022-11-13T01:55:12.052Z,99520.78
2022-11-13T02:00:32.285Z,99511.00
2022-11-13T02:05:56.787Z,99507.69
2022-11-13T02:11:17.667Z,99505.13
2022-11-13T02:16:39.477Z,99516.72
2022-11-13T02:22:10.749Z,99518.16
2022-11-13T02:27:36.552Z,99507.34
2022-11-13T02:32:58.328Z,99510.13
2022-11-13T02:38:18.964Z,99509.75
2022-11-13T02:43:39.392Z,99501.00
2022-11-13T02:48:59.993Z,99499.34
2022-11-13T02:54:20.583Z,99489.03
2022-11-13T02:59:41.536Z,99489.66
2022-11-13T03:05:17.067Z,99490.91
2022-11-13T03:10:37.584Z,99488.66
2022-11-13T03:16:06.838Z,99463.75
2022-11-13T03:21:27.372Z,99474.16
2022-11-13T03:26:47.641Z,99461.69
2022-11-13T03:32:07.704Z,99478.34
2022-11-13T03:37:28.003Z,99469.09
2022-11-13T03:42:48.409Z,99470.09
2022-11-13T03:48:09.288Z,99463.41
2022-11-13T03:53:29.745Z,99472.97
2022-11-13T03:58:49.931Z,99464.63
2022-11-13T04:04:10.267Z,99450.13
2022-11-13T04:09:30.578Z,99453.63
2022-11-13T04:14:50.863Z,99448.66
2022-11-13T04:20:11.846Z,99459.06
2022-11-13T04:25:32.290Z,99451.56
2022-11-13T04:30:56.122Z,99433.66
2022-11-13T04:36:16.422Z,99433.44
2022-11-13T04:41:55.760Z,99426.50
2022-11-13T04:47:16.052Z,99420.00
2022-11-13T04:52:36.469Z,99426.47
2022-11-13T04:57:56.745Z,99414.34
2022-11-13T05:03:16.947Z,99413.31
2022-11-13T05:08:37.312Z,99406.22
2022-11-13T05:14:03.035Z,99396.44
2022-11-13T05:19:24.646Z,99398.66
2022-11-13T05:24:44.670Z,99392.25
2022-11-13T05:30:05.638Z,99386.59
2022-11-13T05:35:26.081Z,99381.75
2022-11-13T05:40:46.683Z,99381.22
2022-11-13T05:46:29.093Z,99372.13
2022-11-13T05:51:49.307Z,99380.03
2022-11-13T05:57:09.642Z,99382.06
2022-11-13T06:02:30.115Z,99377.03
2022-11-13T06:07:50.746Z,99379.97
2022-11-13T06:13:10.982Z,99381.91
2022-11-13T06:18:31.975Z,99375.13
2022-11-13T06:23:52.426Z,99383.28
2022-11-13T06:29:13.185Z,99386.50
2022-11-13T06:34:33.456Z,99375.19
2022-11-13T06:39:53.746Z,99386.72
2022-11-13T06:45:14.129Z,99379.84
2022-11-13T06:50:34.551Z,99383.25
2022-11-13T06:55:54.666Z,99384.34
2022-11-13T07:01:18.049Z,99376.84
2022-11-13T07:06:40.552Z,99388.66
2022-11-13T07:12:00.726Z,99396.28
2022-11-13T07:17:21.016Z,99385.81
2022-11-13T07:22:41.454Z,99387.16
2022-11-13T07:28:01.751Z,99372.38
2022-11-13T07:33:22.298Z,99367.66
2022-11-13T07:38:42.754Z,99375.72
2022-11-13T07:44:07.938Z,99367.50
2022-11-13T07:49:29.689Z,99362.69
2022-11-13T07:54:50.225Z,99364.97
2022-11-13T08:00:11.337Z,99363.34
2022-11-13T08:05:34.246Z,99366.44
2022-11-13T08:10:54.358Z,99364.09
2022-11-13T08:16:14.885Z,99360.97
2022-11-13T08:21:35.991Z,99359.75
2022-11-13T08:26:56.080Z,99357.38
2022-11-13T08:32:18.215Z,99348.22
2022-11-13T08:37:38.424Z,99343.88
2022-11-13T08:43:03.932Z,99354.16
2022-11-13T08:48:25.359Z,99348.25
2022-11-13T08:53:45.787Z,99345.28
2022-11-13T08:59:06.043Z,99347.94
2022-11-13T09:04:27.121Z,99335.53
2022-11-13T09:09:47.640Z,99344.84
2022-11-13T09:15:08.522Z,99345.28
2022-11-13T09:20:30.839Z,99339.50
2022-11-13T09:25:51.159Z,99339.09
2022-11-13T09:31:11.553Z,99340.06
2022-11-13T09:36:31.911Z,99340.09
2022-11-13T09:42:02.324Z,99343.41
2022-11-13T09:47:30.624Z,99328.63
2022-11-13T09:52:52.172Z,99327.22
2022-11-13T09:58:38.937Z,99332.41
2022-11-13T10:04:06.132Z,99331.47
2022-11-13T10:09:55.584Z,99335.91
2022-11-13T10:15:17.258Z,99320.75
2022-11-13T10:20:49.959Z,99328.16
2022-11-13T10:26:29.585Z,99321.81
2022-11-13T10:31:52.342Z,99308.78
2022-11-13T10:37:21.204Z,99304.88
2022-11-13T10:42:41.835Z,99302.50
2022-11-13T10:48:04.602Z,99291.00
2022-11-13T10:53:27.586Z,99286.72
2022-11-13T10:59:12.038Z,99278.97
2022-11-13T11:04:32.480Z,99267.06
2022-11-13T11:09:53.042Z,99261.00
2022-11-13T11:15:37.206Z,99250.22
2022-11-13T11:20:59.794Z,99245.81
2022-11-13T11:26:35.345Z,99246.94
2022-11-13T11:32:10.647Z,99229.13
2022-11-13T11:37:44.124Z,99230.06
2022-11-13T11:43:43.641Z,99229.13
2022-11-13T11:49:03.974Z,99223.00
2022-11-13T11:54:35.025Z,99238.47
2022-11-13T12:00:13.443Z,99234.75
2022-11-13T12:05:49.607Z,99223.59
2022-11-13T12:11:37.647Z,99206.88
2022-11-13T12:17:17.156Z,99204.03
2022-11-13T12:23:02.714Z,99186.59
2022-11-13T12:28:31.517Z,99184.94
2022-11-13T12:34:18.885Z,99179.66
2022-11-13T12:39:55.230Z,99172.84
2022-11-13T12:45:38.602Z,99178.97
2022-11-13T12:51:04.895Z,99165.59
2022-11-13T12:56:26.117Z,99172.78
2022-11-13T13:02:01.405Z,99166.34
2022-11-13T13:07:48.009Z,99154.38
2022-11-13T13:13:23.705Z,99145.78
2022-11-13T13:18:45.143Z,99146.03
2022-11-13T13:24:28.619Z,99129.00
2022-11-13T13:29:48.968Z,99137.72
2022-11-13T13:35:44.715Z,99126.41
2022-11-13T13:41:58.788Z,99113.78
2022-11-13T13:47:32.287Z,99105.63
2022-11-13T13:52:55.915Z,99108.91
2022-11-13T13:58:21.753Z,99111.75
2022-11-13T14:03:42.395Z,99108.63
2022-11-13T14:09:19.332Z,99114.03
2022-11-13T14:14:40.164Z,99113.75
2022-11-13T14:20:01.239Z,99108.25
2022-11-13T14:25:28.051Z,99109.84
2022-11-13T14:30:57.826Z,99104.63
2022-11-13T14:36:27.810Z,99095.59
2022-11-13T14:41:58.158Z,99104.94
2022-11-13T14:47:37.760Z,99096.03
2022-11-13T14:53:01.942Z,99088.91
2022-11-13T14:58:29.726Z,99088.59
2022-11-13T15:03:51.379Z,99073.72
2022-11-13T15:09:15.525Z,99073.03
2022-11-13T15:14:39.810Z,99064.97
2022-11-13T15:20:02.148Z,99058.78
2022-11-13T15:25:26.605Z,99060.22
2022-11-13T15:30:47.104Z,99049.69
2022-11-13T15:36:09.497Z,99041.50
2022-11-13T15:41:30.606Z,99057.94
2022-11-13T15:46:50.940Z,99053.72
2022-11-13T15:52:11.575Z,99050.56
2022-11-13T15:57:31.700Z,99048.09
2022-11-13T16:02:56.918Z,99050.22
2022-11-13T16:08:17.481Z,99061.53
2022-11-13T16:13:38.197Z,99049.00
2022-11-13T16:19:00.361Z,99059.56
2022-11-13T16:24:24.189Z,99062.28
2022-11-13T16:29:45.023Z,99066.72
2022-11-13T16:35:05.871Z,99060.88
2022-11-13T16:40:27.237Z,99060.19
2022-11-13T16:45:47.804Z,99049.84
2022-11-13T16:51:08.251Z,99049.03
2022-11-13T16:56:30.723Z,99038.00
2022-11-13T17:01:55.291Z,99049.16
2022-11-13T17:07:16.171Z,99046.31
2022-11-13T17:12:36.564Z,99034.38
2022-11-13T17:17:58.624Z,99037.66
2022-11-13T17:23:18.948Z,99031.78
2022-11-13T17:28:40.459Z,99023.34
2022-11-13T17:34:01.183Z,99021.00
2022-11-13T17:39:21.813Z,99003.06
2022-11-13T17:44:43.711Z,99005.66
2022-11-13T17:50:07.594Z,99009.03
2022-11-13T17:55:28.130Z,99004.69
2022-11-13T18:00:49.155Z,98998.72
2022-11-13T18:06:15.534Z,99009.75
2022-11-13T18:11:41.243Z,99006.22
2022-11-13T18:17:01.466Z,99005.28
2022-11-13T18:22:22.561Z,99006.53
2022-11-13T18:27:44.260Z,99008.50
2022-11-13T18:33:05.091Z,99002.97
2022-11-13T18:38:25.735Z,98993.22
2022-11-13T18:43:48.587Z,98996.25
2022-11-13T18:49:09.644Z,98993.69
2022-11-13T18:54:30.133Z,98986.75
2022-11-13T18:59:50.567Z,98986.75
2022-11-13T19:05:11.443Z,98974.66
2022-11-13T19:10:34.463Z,98971.13
2022-11-13T19:15:56.071Z,98968.88
2022-11-13T19:21:17.462Z,98965.66
2022-11-13T19:26:38.978Z,98965.16
2022-11-13T19:31:59.034Z,98961.13
2022-11-13T19:37:19.521Z,98949.44
2022-11-13T19:42:42.012Z,98951.53
2022-11-13T19:48:02.867Z,98941.88
2022-11-13T19:53:23.295Z,98954.69
2022-11-13T19:58:44.893Z,98953.97
2022-11-13T20:04:05.714Z,98951.91
2022-11-13T20:09:25.914Z,98955.81
2022-11-13T20:14:46.622Z,98958.53
2022-11-13T20:20:08.365Z,98955.25
2022-11-13T20:25:28.966Z,98955.38
2022-11-13T20:30:51.662Z,98958.09
2022-11-13T20:36:18.459Z,98954.56
2022-11-13T20:41:39.023Z,98949.16
2022-11-13T20:47:02.125Z,98948.19
2022-11-13T20:52:24.767Z,98943.72
2022-11-13T20:57:49.891Z,98947.13
2022-11-13T21:03:10.228Z,98953.09
2022-11-13T21:08:31.359Z,98945.34
2022-11-13T21:13:55.682Z,98941.13
2022-11-13T21:19:15.746Z,98943.97
2022-11-13T21:24:37.999Z,98937.19
2022-11-13T21:29:58.166Z,98934.84
2022-11-13T21:35:22.384Z,98924.78
2022-11-13T21:40:44.642Z,98923.25
2022-11-13T21:46:06.345Z,98918.09
2022-11-13T21:51:26.844Z,98921.38
2022-11-13T21:56:47.003Z,98917.84
2022-11-13T22:02:11.394Z,98910.91
2022-11-13T22:07:32.233Z,98915.94
2022-11-13T22:12:52.792Z,98923.56
2022-11-13T22:18:13.046Z,98914.06
2022-11-13T22:23:34.674Z,98921.13
2022-11-13T22:28:56.343Z,98901.41
2022-11-13T22:34:16.987Z,98898.81
2022-11-13T22:39:37.738Z,98891.06
2022-11-13T22:44:57.940Z,98897.06
2022-11-13T22:50:18.281Z,98902.34
2022-11-13T22:55:38.619Z,98894.59
2022-11-13T23:01:07.912Z,98890.38
2022-11-13T23:06:31.674Z,98872.69
2022-11-13T23:11:51.789Z,98866.94
2022-11-13T23:17:12.281Z,98865.44
2022-11-13T23:22:32.574Z,98857.97
2022-11-13T23:27:52.917Z,98857.97
2022-11-13T23:33:13.389Z,98856.31
2022-11-13T23:38:33.966Z,98835.66
2022-11-13T23:44:08.071Z,98838.00
2022-11-13T23:49:29.037Z,98841.25
2022-11-13T23:54:49.225Z,98837.03
